Time;durP1;ratioP1;P1;durP2;ratioP2;P2;SDS_P1;SDS_P2;PMS_P1;PMS_P2;Temp;Humidity;BMP_temperature;BMP_pressure;BME280_temperature;BME280_humidity;BME280_pressure;Samples;Min_cycle;Max_cycle;Signal;HPM_P1;HPM_P2
2022/03/23 00:00:26;;;;;;;25.95;16.58;;;5.50;67.90;;;;;;5071650;28;20195;-85
2022/03/23 00:02:53;;;;;;;26.23;16.75;;;5.40;63.40;;;;;;5071296;28;20200;-85
2022/03/23 00:05:24;;;;;;;22.20;17.38;;;5.60;58.60;;;;;;5058627;28;20193;-85
2022/03/23 00:07:51;;;;;;;21.15;15.50;;;5.60;58.90;;;;;;5071264;28;20199;-85
2022/03/23 00:10:18;;;;;;;24.60;15.88;;;5.40;59.90;;;;;;5064958;28;20220;-84
2022/03/23 00:12:45;;;;;;;19.25;15.07;;;5.50;58.20;;;;;;5070816;28;20207;-85
2022/03/23 00:15:12;;;;;;;18.00;13.43;;;5.60;57.60;;;;;;5066780;28;20280;-85
2022/03/23 00:17:40;;;;;;;18.48;13.35;;;5.60;56.90;;;;;;5071015;28;20292;-84
2022/03/23 00:20:08;;;;;;;17.13;14.82;;;5.60;57.50;;;;;;5070714;28;20201;-85
2022/03/23 00:22:36;;;;;;;16.98;13.25;;;5.50;57.60;;;;;;5071733;28;20187;-85
2022/03/23 00:25:04;;;;;;;21.35;14.38;;;5.50;57.70;;;;;;5071177;28;20223;-85
2022/03/23 00:27:30;;;;;;;16.35;13.45;;;5.50;57.60;;;;;;5069958;28;20722;-85
2022/03/23 00:29:57;;;;;;;17.20;13.52;;;5.50;57.00;;;;;;5071452;28;20266;-85
2022/03/23 00:32:24;;;;;;;20.88;14.45;;;5.40;56.80;;;;;;5070179;28;20192;-85
2022/03/23 00:34:51;;;;;;;16.92;14.02;;;5.80;57.30;;;;;;5071625;28;20284;-85
2022/03/23 00:37:19;;;;;;;20.83;15.00;;;5.40;61.60;;;;;;5070366;28;20199;-85
2022/03/23 00:39:47;;;;;;;20.45;13.35;;;5.20;58.70;;;;;;5069079;28;20215;-85
2022/03/23 00:42:14;;;;;;;18.15;13.52;;;5.40;67.80;;;;;;5063454;28;20287;-85
2022/03/23 00:44:41;;;;;;;19.17;13.18;;;5.30;57.70;;;;;;5070816;28;20278;-85
2022/03/23 00:47:08;;;;;;;19.88;13.48;;;5.30;57.90;;;;;;5070790;28;20257;-85
2022/03/23 00:49:36;;;;;;;19.02;14.55;;;5.30;57.10;;;;;;5071286;28;20198;-85
2022/03/23 00:52:05;;;;;;;15.90;12.75;;;5.10;66.10;;;;;;5071654;28;20682;-84
2022/03/23 00:54:34;;;;;;;23.08;14.38;;;5.20;57.60;;;;;;5071154;28;20192;-84
2022/03/23 00:57:02;;;;;;;19.73;13.32;;;5.00;70.50;;;;;;5059494;28;20642;-84
2022/03/23 00:59:29;;;;;;;17.02;12.57;;;4.90;58.50;;;;;;5071269;28;20245;-85
2022/03/23 01:01:57;;;;;;;19.88;13.20;;;4.90;58.90;;;;;;5071431;28;20649;-84
2022/03/23 01:04:24;;;;;;;17.92;13.10;;;4.90;58.90;;;;;;5067613;28;20226;-84
2022/03/23 01:06:53;;;;;;;17.80;13.15;;;5.60;59.70;;;;;;5067452;28;20243;-84
2022/03/23 01:09:22;;;;;;;18.23;13.70;;;5.10;63.50;;;;;;5070891;28;20195;-84
2022/03/23 01:11:50;;;;;;;16.02;13.43;;;4.80;59.20;;;;;;5068110;28;20287;-86
2022/03/23 01:14:22;;;;;;;19.40;12.90;;;4.90;59.60;;;;;;5065380;28;20230;-84
2022/03/23 01:16:50;;;;;;;16.20;12.48;;;4.80;59.10;;;;;;5069873;28;20618;-84
2022/03/23 01:19:20;;;;;;;17.80;13.65;;;4.70;59.40;;;;;;5070093;28;20310;-85
2022/03/23 01:21:47;;;;;;;15.98;12.27;;;4.70;58.70;;;;;;5070960;28;20195;-84
2022/03/23 01:24:15;;;;;;;17.10;13.68;;;4.70;59.00;;;;;;5070984;28;20195;-85
2022/03/23 01:26:43;;;;;;;19.90;12.80;;;4.70;59.60;;;;;;5070622;28;20198;-84
2022/03/23 01:29:13;;;;;;;19.00;12.98;;;4.70;59.70;;;;;;5071226;28;20207;-85
2022/03/23 01:31:42;;;;;;;16.45;12.65;;;4.60;59.00;;;;;;5069399;28;20191;-85
2022/03/23 01:34:09;;;;;;;15.82;13.05;;;4.50;65.60;;;;;;5070563;28;20234;-85
2022/03/23 01:36:37;;;;;;;19.85;13.98;;;4.70;59.00;;;;;;5070147;28;20195;-85
2022/03/23 01:39:05;;;;;;;15.90;12.18;;;4.70;58.90;;;;;;5071186;28;20633;-85
2022/03/23 01:41:36;;;;;;;17.95;13.25;;;4.70;58.80;;;;;;5063406;28;20638;-85
2022/03/23 01:44:13;;;;;;;15.40;12.52;;;4.60;58.80;;;;;;5070491;28;20195;-85
2022/03/23 01:47:00;;;;;;;16.25;12.77;;;6.00;67.80;;;;;;5069708;28;20274;-85
2022/03/23 01:49:27;;;;;;;17.33;14.60;;;4.60;59.50;;;;;;5071523;28;20199;-85
2022/03/23 01:51:55;;;;;;;14.63;12.60;;;4.50;59.10;;;;;;5072491;28;20650;-85
2022/03/23 01:54:22;;;;;;;16.85;11.30;;;4.40;59.30;;;;;;5071813;28;20195;-84
2022/03/23 01:56:50;;;;;;;21.98;13.48;;;4.40;59.30;;;;;;5070023;28;20536;-85
2022/03/23 01:59:17;;;;;;;16.90;12.63;;;4.30;59.40;;;;;;5067344;28;20235;-84
2022/03/23 02:01:45;;;;;;;13.68;12.35;;;4.30;59.70;;;;;;5065948;28;20713;-85
2022/03/23 02:04:13;;;;;;;20.40;14.20;;;4.30;60.40;;;;;;5069798;28;20187;-85
2022/03/23 02:06:40;;;;;;;19.90;13.82;;;4.30;59.60;;;;;;5069570;28;20198;-84
2022/03/23 02:09:07;;;;;;;18.38;12.70;;;4.30;59.50;;;;;;5070551;28;20194;-85
2022/03/23 02:11:36;;;;;;;16.58;12.73;;;4.30;59.40;;;;;;5067232;28;20286;-85
2022/03/23 02:14:04;;;;;;;16.20;13.50;;;4.30;68.50;;;;;;5064549;28;20227;-84
2022/03/23 02:16:39;;;;;;;18.60;12.50;;;4.20;59.60;;;;;;5068440;28;20223;-85
2022/03/23 02:19:07;;;;;;;17.65;13.60;;;4.20;59.50;;;;;;5068392;28;20214;-85
2022/03/23 02:21:36;;;;;;;17.77;13.55;;;4.20;59.60;;;;;;5069945;28;20196;-85
2022/03/23 02:24:05;;;;;;;35.90;13.95;;;4.20;59.70;;;;;;5069853;28;20195;-85
2022/03/23 02:26:33;;;;;;;16.75;12.18;;;4.30;59.10;;;;;;5069530;28;20196;-85
2022/03/23 02:29:02;;;;;;;14.20;12.70;;;4.30;59.00;;;;;;5072313;28;20685;-84
2022/03/23 02:31:29;;;;;;;17.75;13.52;;;4.20;58.90;;;;;;5073063;28;20195;-84
2022/03/23 02:33:57;;;;;;;17.02;12.77;;;4.10;59.80;;;;;;5062378;28;20298;-85
2022/03/23 02:36:24;;;;;;;19.17;14.48;;;4.10;59.90;;;;;;5072829;28;20666;-85
2022/03/23 02:38:51;;;;;;;16.98;13.30;;;4.00;60.30;;;;;;5074235;28;20318;-85
2022/03/23 02:41:20;;;;;;;17.73;14.02;;;4.00;60.10;;;;;;5073141;28;20187;-85
2022/03/23 02:43:47;;;;;;;19.35;13.68;;;4.10;68.90;;;;;;5072678;28;20282;-85
2022/03/23 02:46:15;;;;;;;20.50;13.75;;;4.00;61.10;;;;;;5073171;28;20195;-85
2022/03/23 02:48:43;;;;;;;20.63;13.45;;;4.00;60.50;;;;;;5073481;28;20662;-84
2022/03/23 02:51:10;;;;;;;19.23;13.27;;;3.80;60.90;;;;;;5072849;28;20693;-84
2022/03/23 03:02:18;;;;;;;21.40;14.30;;;3.70;61.10;;;;;;5073392;28;20191;-85
2022/03/23 03:04:45;;;;;;;19.63;14.20;;;3.70;60.80;;;;;;5072992;28;20657;-85
2022/03/23 03:07:12;;;;;;;21.45;14.27;;;3.70;60.20;;;;;;5072683;28;20621;-84
2022/03/23 03:09:39;;;;;;;20.05;13.98;;;3.80;60.30;;;;;;5073437;28;20198;-85
2022/03/23 03:12:08;;;;;;;16.63;13.18;;;3.80;60.20;;;;;;5072770;28;20191;-85
2022/03/23 03:14:35;;;;;;;22.83;14.40;;;3.80;61.30;;;;;;5068691;28;20223;-84
2022/03/23 03:17:02;;;;;;;17.15;13.43;;;3.80;60.50;;;;;;5072718;28;20187;-85
2022/03/23 03:19:29;;;;;;;24.92;13.52;;;3.80;60.50;;;;;;5073101;28;20211;-85
2022/03/23 03:21:56;;;;;;;20.17;14.48;;;3.80;61.30;;;;;;5073279;28;20621;-85
2022/03/23 03:24:23;;;;;;;18.25;13.70;;;3.80;61.70;;;;;;5072567;28;20226;-85
2022/03/23 03:26:50;;;;;;;18.42;12.10;;;3.80;60.90;;;;;;5072116;28;20460;-85
2022/03/23 03:29:19;;;;;;;18.05;12.93;;;3.80;60.80;;;;;;5073622;28;20209;-85
2022/03/23 03:31:46;;;;;;;17.65;13.60;;;3.70;60.90;;;;;;5073279;28;20272;-85
2022/03/23 03:34:28;;;;;;;20.42;14.40;;;3.50;66.90;;;;;;5072299;28;20302;-85
2022/03/23 03:36:55;;;;;;;19.73;14.75;;;3.70;61.70;;;;;;5071461;28;20187;-85
2022/03/23 03:39:22;;;;;;;18.45;13.68;;;3.70;61.20;;;;;;5072394;28;20246;-85
2022/03/23 03:41:48;;;;;;;16.50;13.73;;;3.90;62.20;;;;;;5072389;28;20188;-85
2022/03/23 03:44:15;;;;;;;21.65;13.77;;;3.50;67.30;;;;;;5072222;28;20199;-85
2022/03/23 03:46:45;;;;;;;20.23;13.88;;;3.40;61.60;;;;;;5072553;28;20245;-85
2022/03/23 03:49:15;;;;;;;18.23;14.38;;;3.60;61.50;;;;;;5070442;28;20199;-85
2022/03/23 03:51:42;;;;;;;16.73;12.15;;;3.50;61.70;;;;;;5067874;28;20677;-85
2022/03/23 03:54:09;;;;;;;20.35;15.40;;;3.60;63.40;;;;;;5072917;28;20211;-85
2022/03/23 03:56:35;;;;;;;18.48;14.65;;;3.60;62.60;;;;;;5070484;28;20195;-85
2022/03/23 03:59:02;;;;;;;20.23;14.63;;;3.50;61.80;;;;;;5072427;28;20254;-85
2022/03/23 04:01:29;;;;;;;20.80;16.17;;;3.50;62.50;;;;;;5075846;28;20187;-85
2022/03/23 04:03:57;;;;;;;16.40;13.32;;;3.50;62.60;;;;;;5072270;28;20681;-85
2022/03/23 04:06:24;;;;;;;18.45;13.88;;;3.50;62.50;;;;;;5072148;28;20732;-85
2022/03/23 04:08:51;;;;;;;21.63;14.48;;;3.50;62.40;;;;;;5072577;28;20195;-85
2022/03/23 04:11:18;;;;;;;18.55;14.73;;;3.40;62.20;;;;;;5072878;28;20230;-85
2022/03/23 04:13:45;;;;;;;22.75;14.07;;;3.40;62.70;;;;;;5072878;28;20195;-85
2022/03/23 04:16:12;;;;;;;28.10;15.10;;;3.40;62.40;;;;;;5066525;28;20211;-85
2022/03/23 04:18:39;;;;;;;19.50;13.82;;;3.30;62.50;;;;;;5072771;28;20200;-84
2022/03/23 04:21:08;;;;;;;24.52;15.35;;;3.50;63.10;;;;;;5071953;28;20199;-85
2022/03/23 04:23:35;;;;;;;23.48;14.82;;;3.40;63.30;;;;;;5073402;28;20206;-85
2022/03/23 04:26:02;;;;;;;17.85;13.60;;;3.50;62.60;;;;;;5072057;28;20282;-84
2022/03/23 04:28:29;;;;;;;22.23;15.15;;;3.30;62.50;;;;;;5071576;28;20223;-85
2022/03/23 04:30:56;;;;;;;18.60;13.00;;;3.20;68.10;;;;;;5071246;28;20199;-85
2022/03/23 04:33:23;;;;;;;18.38;13.65;;;3.30;63.10;;;;;;5070867;28;20614;-85
2022/03/23 04:35:50;;;;;;;21.90;15.50;;;3.20;62.20;;;;;;5071841;28;20693;-85
2022/03/23 04:38:18;;;;;;;21.48;14.30;;;3.70;62.80;;;;;;5071976;28;20196;-85
2022/03/23 04:40:45;;;;;;;21.27;14.50;;;3.20;62.60;;;;;;5070779;28;20264;-85
2022/03/23 04:43:12;;;;;;;17.85;12.52;;;3.00;68.10;;;;;;5071201;28;20241;-84
2022/03/23 04:45:40;;;;;;;17.80;12.57;;;3.10;62.30;;;;;;5065264;28;20215;-85
2022/03/23 04:48:07;;;;;;;20.00;15.20;;;3.20;62.90;;;;;;5071220;28;20202;-85
2022/03/23 04:50:34;;;;;;;21.02;14.00;;;3.20;62.80;;;;;;5071568;28;20562;-85
2022/03/23 04:53:01;;;;;;;21.52;14.75;;;3.10;62.80;;;;;;5070509;28;20198;-84
2022/03/23 04:55:29;;;;;;;25.73;14.32;;;3.00;63.40;;;;;;5072314;28;20199;-85
2022/03/23 04:57:56;;;;;;;18.40;14.20;;;3.00;63.10;;;;;;5071908;28;20183;-85
2022/03/23 05:00:23;;;;;;;21.88;13.80;;;3.10;63.70;;;;;;5071845;28;20326;-85
2022/03/23 05:02:50;;;;;;;20.17;14.13;;;3.00;63.10;;;;;;5074094;28;20249;-85
2022/03/23 05:05:17;;;;;;;18.08;14.25;;;3.00;63.60;;;;;;5064893;28;20252;-84
2022/03/23 05:07:45;;;;;;;20.85;14.00;;;3.00;63.40;;;;;;5070717;28;20192;-85
2022/03/23 05:10:13;;;;;;;25.92;14.50;;;3.00;63.30;;;;;;5070860;28;20237;-85
2022/03/23 05:12:43;;;;;;;23.00;15.10;;;3.00;69.10;;;;;;5070687;28;20234;-85
2022/03/23 05:15:11;;;;;;;19.00;14.70;;;2.90;63.80;;;;;;5066428;28;20312;-85
2022/03/23 05:17:39;;;;;;;18.52;13.90;;;2.90;64.30;;;;;;5070403;28;20188;-85
2022/03/23 05:20:08;;;;;;;19.85;15.27;;;2.80;64.80;;;;;;5070088;28;20265;-85
2022/03/23 05:22:35;;;;;;;18.25;14.35;;;2.80;64.70;;;;;;5070438;28;20199;-87
2022/03/23 05:25:03;;;;;;;21.85;14.05;;;2.70;64.80;;;;;;5071512;28;20207;-87
2022/03/23 05:27:33;;;;;;;18.88;13.25;;;2.70;65.00;;;;;;5069411;28;20205;-87
2022/03/23 05:30:04;;;;;;;18.20;13.88;;;2.70;64.30;;;;;;5065878;28;20196;-88
2022/03/23 05:32:31;;;;;;;17.65;12.30;;;2.70;64.10;;;;;;5070459;28;20207;-87
2022/03/23 05:34:58;;;;;;;17.45;14.07;;;2.70;64.20;;;;;;5059154;28;20196;-86
2022/03/23 05:37:25;;;;;;;23.85;16.05;;;2.70;64.20;;;;;;5061757;28;20191;-88
2022/03/23 05:39:52;;;;;;;19.65;13.95;;;2.70;64.40;;;;;;5056234;28;20250;-87
2022/03/23 05:42:19;;;;;;;20.42;15.50;;;2.70;64.60;;;;;;5055345;28;20191;-87
2022/03/23 05:45:20;;;;;;;21.13;14.85;;;2.70;69.10;;;;;;5070781;28;20195;-88
2022/03/23 05:47:49;;;;;;;27.42;16.30;;;2.70;65.40;;;;;;5070599;28;20332;-87
2022/03/23 05:50:16;;;;;;;22.88;14.80;;;2.70;64.80;;;;;;5070078;28;20275;-88
2022/03/23 05:52:45;;;;;;;24.38;16.80;;;2.70;64.60;;;;;;5065239;28;20286;-88
2022/03/23 05:55:12;;;;;;;20.88;14.48;;;2.70;64.70;;;;;;5060910;28;20196;-88
2022/03/23 05:57:41;;;;;;;23.30;15.40;;;2.80;76.00;;;;;;5066729;28;20195;-88
2022/03/23 06:00:12;;;;;;;18.67;13.63;;;2.70;66.20;;;;;;5050794;28;20215;-88
2022/03/23 06:02:41;;;;;;;21.25;15.27;;;2.80;73.00;;;;;;5062028;28;20703;-88
2022/03/23 06:05:10;;;;;;;21.27;14.23;;;2.80;65.70;;;;;;5063748;28;20207;-87
2022/03/23 06:07:59;;;;;;;22.63;14.65;;;2.90;65.80;;;;;;5065658;28;20281;-87
2022/03/23 06:10:26;;;;;;;19.42;14.45;;;2.90;66.60;;;;;;5063976;28;20208;-88
2022/03/23 06:12:53;;;;;;;20.60;15.27;;;;;;;;;;5066319;28;20195;-88
2022/03/23 06:15:21;;;;;;;23.27;15.23;;;3.00;66.10;;;;;;5072636;28;20223;-87
2022/03/23 06:17:48;;;;;;;23.75;14.82;;;3.10;65.60;;;;;;5107159;28;20214;-87
2022/03/23 06:20:16;;;;;;;22.17;15.05;;;3.20;65.70;;;;;;5074278;28;20215;-85
2022/03/23 06:22:43;;;;;;;20.83;16.67;;;3.40;65.50;;;;;;5074384;28;20712;-85
2022/03/23 06:25:10;;;;;;;20.80;15.88;;;3.50;65.50;;;;;;5073774;28;20292;-85
2022/03/23 06:27:38;;;;;;;23.65;16.75;;;3.60;65.10;;;;;;5065040;28;20199;-85
2022/03/23 06:30:06;;;;;;;24.33;16.35;;;3.80;64.40;;;;;;5065090;28;20252;-86
2022/03/23 06:32:33;;;;;;;22.00;16.15;;;3.90;64.10;;;;;;5070515;28;20211;-87
2022/03/23 06:35:01;;;;;;;25.95;16.50;;;3.90;63.80;;;;;;5061634;28;20231;-84
2022/03/23 06:37:30;;;;;;;26.27;17.60;;;4.00;64.40;;;;;;5072666;28;20214;-85
2022/03/23 06:39:57;;;;;;;29.85;17.52;;;4.00;63.90;;;;;;5071070;28;20269;-85
2022/03/23 06:42:25;;;;;;;28.00;17.15;;;4.20;63.80;;;;;;5073376;28;20784;-85
2022/03/23 06:44:52;;;;;;;24.30;17.13;;;4.20;64.00;;;;;;5073437;28;20239;-85
2022/03/23 06:47:19;;;;;;;35.85;18.05;;;4.30;64.20;;;;;;5064206;28;20653;-85
2022/03/23 06:49:46;;;;;;;22.80;17.67;;;4.40;65.40;;;;;;5067307;28;20202;-85
2022/03/23 06:52:14;;;;;;;27.65;17.70;;;4.50;64.60;;;;;;5074436;28;20890;-85
2022/03/23 06:54:43;;;;;;;27.77;17.48;;;4.50;63.90;;;;;;5070726;28;20721;-85
2022/03/23 06:57:10;;;;;;;24.27;17.90;;;4.60;63.80;;;;;;5062469;28;20203;-85
2022/03/23 06:59:37;;;;;;;22.30;18.15;;;4.70;63.50;;;;;;5066028;28;20278;-85
2022/03/23 07:02:05;;;;;;;26.77;17.38;;;4.80;63.30;;;;;;5072664;28;20614;-85
2022/03/23 07:04:32;;;;;;;22.30;16.85;;;5.00;64.00;;;;;;5064729;28;20243;-85
2022/03/23 07:06:59;;;;;;;29.67;18.60;;;5.10;62.80;;;;;;5071638;28;20622;-85
2022/03/23 07:09:38;;;;;;;21.73;17.60;;;5.20;62.80;;;;;;5072314;28;20196;-85
2022/03/23 07:12:09;;;;;;;26.08;17.02;;;5.30;62.70;;;;;;5072066;28;20210;-85
2022/03/23 07:14:37;;;;;;;22.80;17.65;;;5.50;62.70;;;;;;5072143;28;20225;-85
2022/03/23 07:17:05;;;;;;;26.67;17.67;;;5.60;62.40;;;;;;5063205;28;20249;-85
2022/03/23 07:19:32;;;;;;;26.27;17.08;;;5.80;62.10;;;;;;5066195;28;20296;-85
2022/03/23 07:22:00;;;;;;;27.63;17.10;;;5.90;61.90;;;;;;5068634;28;20325;-85
2022/03/23 07:24:27;;;;;;;26.38;16.75;;;6.10;61.50;;;;;;5065474;28;20590;-86
2022/03/23 07:26:54;;;;;;;21.45;16.25;;;6.10;61.40;;;;;;5072456;28;20651;-85
2022/03/23 07:29:22;;;;;;;29.27;18.80;;;6.30;61.80;;;;;;5071662;28;20631;-86
2022/03/23 07:31:50;;;;;;;23.05;16.67;;;6.40;61.20;;;;;;5074246;28;20287;-86
2022/03/23 07:34:19;;;;;;;29.35;18.08;;;6.50;61.60;;;;;;5074012;28;20234;-85
2022/03/23 07:36:47;;;;;;;25.40;17.40;;;6.60;61.70;;;;;;5074570;28;20203;-85
2022/03/23 07:39:20;;;;;;;23.98;18.60;;;6.70;60.50;;;;;;5074455;28;20223;-86
2022/03/23 07:41:50;;;;;;;26.30;19.25;;;6.80;60.00;;;;;;5068513;28;20254;-85
2022/03/23 07:44:17;;;;;;;27.75;18.20;;;7.00;60.40;;;;;;5073684;28;20290;-86
2022/03/23 07:46:46;;;;;;;32.67;19.95;;;7.10;60.10;;;;;;5074236;28;20286;-85
2022/03/23 07:49:13;;;;;;;24.27;17.75;;;7.10;60.30;;;;;;5074909;28;20230;-86
2022/03/23 07:51:40;;;;;;;26.15;18.75;;;7.20;60.30;;;;;;5075185;28;20230;-86
2022/03/23 07:54:08;;;;;;;32.15;19.00;;;7.30;60.00;;;;;;5076233;28;20268;-86
2022/03/23 07:56:35;;;;;;;23.10;17.88;;;7.30;59.80;;;;;;5074137;28;20203;-85
2022/03/23 07:59:02;;;;;;;21.60;17.63;;;7.40;60.10;;;;;;5069485;28;20706;-86
2022/03/23 08:01:30;;;;;;;21.77;17.67;;;7.40;59.60;;;;;;5071503;28;20754;-86
2022/03/23 08:03:58;;;;;;;24.30;19.10;;;7.50;59.90;;;;;;5066177;28;20274;-85
2022/03/23 08:06:26;;;;;;;24.30;18.83;;;7.60;59.60;;;;;;5072674;28;20287;-85
2022/03/23 08:08:53;;;;;;;24.27;17.42;;;7.70;59.80;;;;;;5072196;28;20208;-86
2022/03/23 08:11:21;;;;;;;23.90;17.90;;;7.90;59.80;;;;;;5072410;28;20724;-85
2022/03/23 08:13:48;;;;;;;25.42;18.70;;;8.10;59.60;;;;;;5072505;28;20533;-86
2022/03/23 08:16:15;;;;;;;24.30;18.40;;;8.10;58.80;;;;;;5071510;28;20199;-85
2022/03/23 08:18:41;;;;;;;27.33;17.77;;;8.40;58.50;;;;;;5072184;28;20197;-86
2022/03/23 08:21:10;;;;;;;24.40;18.05;;;8.60;58.10;;;;;;5072131;28;20227;-86
2022/03/23 08:23:38;;;;;;;29.17;19.17;;;8.80;58.10;;;;;;5071843;28;20201;-85
2022/03/23 08:26:09;;;;;;;33.88;18.60;;;8.90;57.90;;;;;;5071374;28;20209;-85
2022/03/23 08:28:39;;;;;;;24.05;17.63;;;8.90;57.40;;;;;;5071438;28;20681;-86
2022/03/23 08:31:06;;;;;;;25.30;18.58;;;9.00;57.30;;;;;;5072275;28;20204;-86
2022/03/23 08:33:34;;;;;;;28.17;19.05;;;9.10;56.70;;;;;;5071681;28;20218;-85
2022/03/23 08:36:01;;;;;;;23.05;16.30;;;9.20;56.10;;;;;;5071032;28;20675;-86
2022/03/23 08:38:30;;;;;;;25.63;18.40;;;9.30;55.90;;;;;;5060129;28;20256;-85
2022/03/23 08:40:57;;;;;;;27.00;17.67;;;9.40;55.90;;;;;;5066966;28;20660;-85
2022/03/23 08:43:24;;;;;;;24.87;17.00;;;9.50;55.40;;;;;;5071526;28;20633;-85
2022/03/23 08:45:51;;;;;;;22.57;16.27;;;9.60;54.80;;;;;;5071938;28;21023;-85
2022/03/23 08:48:19;;;;;;;23.57;15.90;;;9.80;54.60;;;;;;5069915;28;20651;-86
2022/03/23 08:50:46;;;;;;;23.13;16.80;;;9.90;52.70;;;;;;5066017;28;21034;-85
2022/03/23 08:53:13;;;;;;;20.23;15.57;;;10.10;52.70;;;;;;5070871;28;20621;-86
2022/03/23 08:55:41;;;;;;;20.97;16.93;;;10.30;52.00;;;;;;5070981;28;20628;-86
2022/03/23 08:58:08;;;;;;;21.47;16.97;;;10.40;51.50;;;;;;5071059;28;20617;-85
2022/03/23 09:00:36;;;;;;;19.80;17.03;;;10.50;51.10;;;;;;5071518;28;21214;-85
2022/03/23 09:03:03;;;;;;;22.73;16.37;;;10.80;49.80;;;;;;5070822;28;20671;-85
2022/03/23 09:05:30;;;;;;;23.30;17.80;;;;;;;;;;5070904;28;20671;-86
2022/03/23 09:07:57;;;;;;;22.10;16.57;;;11.00;50.70;;;;;;5069444;28;20618;-85
2022/03/23 09:10:24;;;;;;;22.50;15.60;;;11.20;51.20;;;;;;5070799;28;20715;-86
2022/03/23 09:12:52;;;;;;;25.77;18.13;;;11.30;50.40;;;;;;5071324;28;20647;-86
2022/03/23 09:15:19;;;;;;;26.17;17.70;;;11.40;49.90;;;;;;5071083;28;20621;-86
2022/03/23 09:17:47;;;;;;;23.73;15.70;;;11.50;49.90;;;;;;5070675;28;21250;-86
2022/03/23 09:20:14;;;;;;;17.83;15.97;;;11.70;49.80;;;;;;5071015;28;20625;-85
2022/03/23 09:22:44;;;;;;;23.80;15.50;;;11.70;48.80;;;;;;5069376;28;20649;-85
2022/03/23 09:25:13;;;;;;;23.07;16.60;;;11.90;49.80;;;;;;5070910;28;20648;-85
2022/03/23 09:27:42;;;;;;;18.10;15.63;;;11.90;47.80;;;;;;5070859;28;20657;-85
2022/03/23 09:30:13;;;;;;;17.43;15.43;;;12.20;47.90;;;;;;5070255;28;20986;-85
2022/03/23 09:32:43;;;;;;;16.60;14.30;;;12.40;47.90;;;;;;5068316;28;20628;-85
2022/03/23 09:35:10;;;;;;;22.67;15.37;;;12.50;47.50;;;;;;5070505;28;20632;-85
2022/03/23 09:37:49;;;;;;;16.87;13.57;;;12.60;46.40;;;;;;5070467;28;20699;-85
2022/03/23 09:40:19;;;;;;;20.63;14.50;;;12.70;45.80;;;;;;5070956;28;21095;-86
2022/03/23 09:42:46;;;;;;;23.10;15.40;;;12.70;45.00;;;;;;5059785;28;20702;-85
2022/03/23 09:45:21;;;;;;;16.60;13.60;;;12.90;45.50;;;;;;5055048;28;20657;-85
2022/03/23 09:47:48;;;;;;;15.30;13.70;;;13.00;45.60;;;;;;5067386;28;20628;-85
2022/03/23 09:50:15;;;;;;;17.80;14.97;;;13.10;43.70;;;;;;5070177;28;20693;-86
2022/03/23 09:52:42;;;;;;;17.37;13.97;;;13.10;43.70;;;;;;5067890;28;20719;-86
2022/03/23 09:55:10;;;;;;;16.20;14.10;;;13.20;43.60;;;;;;5069250;28;20729;-85
2022/03/23 09:57:37;;;;;;;18.43;13.50;;;13.40;44.10;;;;;;5066422;28;20621;-86
2022/03/23 10:00:08;;;;;;;16.83;14.03;;;13.50;41.90;;;;;;5063606;28;20628;-85
2022/03/23 10:03:21;;;;;;;14.97;13.50;;;13.60;43.90;;;;;;5068898;28;20658;-85
2022/03/23 10:06:28;;;;;;;17.50;15.70;;;13.60;43.00;;;;;;5063597;28;20630;-85
2022/03/23 10:09:21;;;;;;;20.00;14.90;;;13.60;42.60;;;;;;5061266;28;21256;-86
2022/03/23 10:12:26;;;;;;;16.83;14.10;;;13.60;41.80;;;;;;5070693;28;21142;-86
2022/03/23 10:15:55;;;;;;;14.67;12.53;;;13.80;42.00;;;;;;5069557;28;20708;-86
2022/03/23 10:18:51;;;;;;;13.87;12.57;;;14.10;42.40;;;;;;5069427;28;20672;-87
2022/03/23 10:21:20;;;;;;;15.07;12.37;;;14.20;40.80;;;;;;5070362;28;20756;-86
2022/03/23 10:24:28;;;;;;;17.87;13.40;;;14.40;41.10;;;;;;5069475;28;20620;-86
2022/03/23 10:26:55;;;;;;;13.43;12.00;;;14.50;42.00;;;;;;5069321;28;20725;-85
2022/03/23 10:29:24;;;;;;;13.83;12.13;;;14.50;43.10;;;;;;5069459;28;20664;-85
2022/03/23 10:32:03;;;;;;;16.03;14.43;;;14.40;39.90;;;;;;5070075;28;20636;-85
2022/03/23 10:34:57;;;;;;;16.33;13.90;;;14.40;41.50;;;;;;5070316;28;20634;-85
2022/03/23 10:37:27;;;;;;;13.83;12.43;;;14.60;40.90;;;;;;5056808;28;20674;-85
2022/03/23 10:39:55;;;;;;;14.97;13.37;;;14.70;40.20;;;;;;5061111;28;21209;-85
2022/03/23 10:42:24;;;;;;;18.13;14.60;;;14.70;40.60;;;;;;5065830;28;20724;-85
2022/03/23 10:45:02;;;;;;;17.83;15.57;;;14.80;40.60;;;;;;5070625;28;21011;-85
2022/03/23 10:47:31;;;;;;;14.07;12.57;;;14.90;41.20;;;;;;5070063;28;20636;-85
2022/03/23 10:50:05;;;;;;;16.90;14.07;;;14.70;44.70;;;;;;5070998;28;20643;-85
2022/03/23 10:52:34;;;;;;;16.73;12.43;;;14.70;38.90;;;;;;5064985;28;21059;-85
2022/03/23 10:55:02;;;;;;;15.87;14.27;;;14.60;39.00;;;;;;5066914;28;20620;-85
2022/03/23 11:00:54;;;;;;;15.70;14.10;;;14.80;40.60;;;;;;5067045;28;21266;-87
2022/03/23 11:07:03;;;;;;;15.93;12.70;;;15.00;39.80;;;;;;5046585;28;20708;-85
2022/03/23 11:18:07;;;;;;;14.10;12.27;;;15.10;37.50;;;;;;5073708;28;20657;-85
2022/03/23 11:20:45;;;;;;;14.47;12.60;;;15.10;37.60;;;;;;5073722;28;21000;-85
2022/03/23 11:23:20;;;;;;;12.20;10.90;;;15.10;36.40;;;;;;5073523;28;20616;-85
2022/03/23 11:25:49;;;;;;;14.27;11.60;;;15.10;36.70;;;;;;5072930;28;20619;-86
2022/03/23 11:28:17;;;;;;;10.80;9.70;;;15.20;36.70;;;;;;5073899;28;20612;-86
2022/03/23 11:30:45;;;;;;;13.80;12.00;;;15.30;35.80;;;;;;5073968;28;20616;-86
2022/03/23 11:33:12;;;;;;;13.33;10.27;;;15.30;36.70;;;;;;5073542;28;20629;-86
2022/03/23 11:35:45;;;;;;;11.50;10.40;;;15.50;40.00;;;;;;5069412;28;20724;-86
2022/03/23 11:38:13;;;;;;;11.40;10.30;;;15.40;36.20;;;;;;5067692;28;20675;-86
2022/03/23 11:40:41;;;;;;;16.40;11.67;;;15.50;36.90;;;;;;5073066;28;20628;-85
2022/03/23 11:43:10;;;;;;;13.63;9.73;;;15.50;35.90;;;;;;5071283;28;20628;-86
2022/03/23 11:45:38;;;;;;;9.57;8.57;;;15.50;35.40;;;;;;5072384;28;20627;-86
2022/03/23 11:48:13;;;;;;;9.60;8.27;;;15.40;34.20;;;;;;5073396;28;20624;-86
2022/03/23 11:51:05;;;;;;;8.20;7.40;;;15.40;32.60;;;;;;5071927;28;20731;-87
2022/03/23 11:53:38;;;;;;;10.90;9.10;;;15.30;31.80;;;;;;5067673;28;20670;-86
2022/03/23 11:56:06;;;;;;;10.50;7.28;;;15.30;33.40;;;;;;5071520;28;20841;-86
2022/03/23 11:58:37;;;;;;;7.10;5.83;;;15.40;31.60;;;;;;5072309;28;20291;-86
2022/03/23 12:01:11;;;;;;;7.60;6.80;;;15.40;33.00;;;;;;5071807;28;20629;-86
2022/03/23 12:03:53;;;;;;;8.77;7.80;;;15.50;33.00;;;;;;5071004;28;20612;-89
2022/03/23 12:06:22;;;;;;;8.20;7.10;;;15.50;31.60;;;;;;5073208;28;20863;-88
2022/03/23 12:08:51;;;;;;;7.53;6.77;;;15.70;37.30;;;;;;5073638;28;20712;-90
2022/03/23 12:11:51;;;;;;;10.50;8.77;;;15.70;33.00;;;;;;5073265;28;20613;-88
2022/03/23 12:14:28;;;;;;;9.70;8.70;;;15.60;31.90;;;;;;5073223;28;20614;-89
2022/03/23 12:17:02;;;;;;;10.50;9.40;;;15.70;34.20;;;;;;5072739;28;20618;-89
2022/03/23 12:19:31;;;;;;;12.27;9.60;;;15.80;34.10;;;;;;5071162;28;20616;-88
2022/03/23 12:22:14;;;;;;;10.53;9.00;;;15.70;33.10;;;;;;5073217;28;20745;-88
2022/03/23 12:24:47;;;;;;;10.37;9.00;;;15.80;33.00;;;;;;5074028;28;20624;-89
2022/03/23 12:27:18;;;;;;;10.63;8.50;;;15.80;32.50;;;;;;5073167;28;20704;-89
2022/03/23 12:29:50;;;;;;;11.13;9.40;;;15.70;32.70;;;;;;5073615;28;21154;-89
2022/03/23 12:32:17;;;;;;;10.50;9.27;;;15.70;32.30;;;;;;5073479;28;21029;-89
2022/03/23 12:34:45;;;;;;;10.90;9.80;;;15.70;32.80;;;;;;5073081;28;20622;-88
2022/03/23 12:37:15;;;;;;;11.23;10.03;;;15.90;32.30;;;;;;5073222;28;20673;-88
2022/03/23 12:39:44;;;;;;;13.50;10.73;;;15.90;32.80;;;;;;5073318;28;20624;-88
2022/03/23 12:42:19;;;;;;;10.23;9.10;;;15.90;33.20;;;;;;5073899;28;20755;-89
2022/03/23 12:44:54;;;;;;;13.20;9.50;;;15.90;32.60;;;;;;5073307;28;21218;-89
2022/03/23 12:47:26;;;;;;;14.30;9.70;;;16.00;32.10;;;;;;5074422;28;20617;-88
2022/03/23 12:58:11;;;;;;;11.10;9.53;;;16.20;33.50;;;;;;5073367;28;20603;-90
2022/03/23 13:00:42;;;;;;;11.53;9.90;;;16.10;35.10;;;;;;5073290;28;20624;-89
2022/03/23 13:03:50;;;;;;;13.27;9.97;;;16.80;30.40;;;;;;5072815;28;20681;-89
2022/03/23 13:07:12;;;;;;;11.80;8.50;;;16.30;30.20;;;;;;5074660;28;20716;-90
2022/03/23 13:09:43;;;;;;;10.17;8.67;;;16.30;31.90;;;;;;5018210;28;20631;-89
2022/03/23 13:12:10;;;;;;;11.00;9.53;;;17.10;30.40;;;;;;5070442;28;20626;-87
2022/03/23 13:14:37;;;;;;;11.07;9.87;;;16.40;30.20;;;;;;5066892;28;20618;-87
2022/03/23 13:17:07;;;;;;;10.87;9.50;;;16.60;31.50;;;;;;5070254;28;20687;-86
2022/03/23 13:19:34;;;;;;;12.50;10.00;;;16.60;30.60;;;;;;5070683;28;20641;-87
2022/03/23 13:22:01;;;;;;;15.53;10.57;;;16.60;30.30;;;;;;5070685;28;20714;-85